createdAt,value
2024-04-30T00:20:54.572Z,7
2024-04-30T00:49:07.516Z,6
2024-04-30T01:17:19.454Z,7
2024-04-30T01:45:42.508Z,7
2024-04-30T02:14:04.943Z,7
2024-04-30T02:42:17.366Z,7
2024-04-30T03:10:34.130Z,8
2024-04-30T03:38:47.240Z,10
2024-04-30T04:07:06.307Z,8
2024-04-30T04:35:59.998Z,10
2024-04-30T05:04:59.750Z,8
2024-04-30T05:34:13.647Z,8
2024-04-30T06:03:22.590Z,7
2024-04-30T06:31:51.644Z,8
2024-04-30T07:01:05.139Z,7
2024-04-30T07:30:31.813Z,7
2024-04-30T07:59:22.066Z,9
2024-04-30T08:28:11.088Z,10
2024-04-30T08:57:05.198Z,11
2024-04-30T09:26:01.015Z,11
2024-04-30T09:54:28.841Z,11
2024-04-30T10:23:23.136Z,13
2024-04-30T10:52:06.993Z,10
2024-04-30T11:20:19.810Z,8
2024-04-30T11:48:46.379Z,7
2024-04-30T12:17:46.161Z,7
2024-04-30T12:46:27.390Z,7
2024-04-30T13:15:19.209Z,7
2024-04-30T13:44:19.872Z,5
2024-04-30T14:13:25.704Z,6
2024-04-30T14:42:28.609Z,6
2024-04-30T15:11:31.173Z,6
2024-04-30T15:40:33.569Z,6
2024-04-30T16:09:27.110Z,7
2024-04-30T16:38:20.464Z,7
2024-04-30T17:07:16.937Z,8
2024-04-30T17:36:12.166Z,10
2024-04-30T18:05:15.005Z,10
2024-04-30T18:34:08.729Z,11
2024-04-30T19:02:20.333Z,11
2024-04-30T19:30:34.336Z,15
2024-04-30T19:58:53.779Z,14
2024-04-30T20:27:04.912Z,13
2024-04-30T20:55:19.906Z,10
2024-04-30T21:23:49.598Z,11
2024-04-30T21:52:05.257Z,11
2024-04-30T22:20:27.069Z,10
2024-04-30T22:48:46.470Z,10
2024-04-30T23:17:01.581Z,11
2024-04-30T23:45:29.537Z,10
